Latest Weather Observations for Dunalley

IDT60901

Issued at 3:05 am EST Thursday 31 July 2014 (issued every 10 minutes, with the page automatically refreshed every 10 minutes)

About weather observations | Map of Hobart area stations | Latest observations for Hobart area | Other Formats
Station Details ID: 094254 Name: DUNALLEY (STROUD POINT) Lat: -42.90 Lon: 147.79 Height: 12.43 m
Data from the previous 72 hours. | See also: Recent months at Dunalley
Date/Time
EST
Tmp

°C
App
Tmp
°C
Dew
Point
°C
Rel
Hum
%
Delta-T

°C
Wind Press
QNH
hPa
Press
MSL
hPa
Rain
since
9 am
mm
Dir
 
Spd
km/h
Gust
km/h
Spd
kts
Gust
kts
31/03:00am 10.6 4.3 8.9 89 0.9 SW 32 48 17 26 988.9 988.9 0.2
31/02:47am 12.3 3.5 8.0 75 2.1 WSW 44 48 24 26 989.3 - 0.0
31/02:30am 15.1 9.6 5.9 54 4.4 NW 24 43 13 23 988.4 - 0.0
31/02:01am 14.9 8.2 5.4 53 4.5 NW 30 48 16 26 988.3 - 0.0
31/02:00am 14.9 8.5 5.4 53 4.6 NW 28 37 15 20 988.4 988.4 0.0
31/01:30am 15.0 6.8 4.7 50 4.8 WNW 37 67 20 36 988.0 - 0.0
31/01:00am 14.9 7.0 4.6 50 4.9 NW 35 56 19 30 987.9 987.9 0.0
31/12:55am 14.9 7.4 4.6 50 4.8 NW 33 54 18 29 987.8 - 0.0
31/12:30am 14.5 7.6 4.5 51 4.6 NW 30 43 16 23 987.9 - 0.0
31/12:10am 14.5 7.9 4.2 50 4.7 NW 28 52 15 28 988.6 - 0.0
31/12:00am 14.3 8.8 4.0 50 4.8 NW 22 44 12 24 989.1 989.1 0.0
 
Date/Time
EST
Tmp

°C
App
Tmp
°C
Dew
Point
°C
Rel
Hum
%
Delta-T

°C
Wind Press
QNH
hPa
Press
MSL
hPa
Rain
since
9 am
mm
Dir
 
Spd
km/h
Gust
km/h
Spd
kts
Gust
kts
30/11:34pm 14.3 7.8 4.6 52 4.5 NW 28 48 15 26 989.2 - 0.0
30/11:30pm 14.1 8.0 4.7 53 4.4 WNW 26 41 14 22 989.3 - 0.0
30/11:04pm 14.3 7.7 4.3 51 4.6 NW 28 48 15 26 989.4 - 0.0
30/11:00pm 14.7 7.4 4.4 50 4.8 NW 32 48 17 26 989.4 989.4 0.0
30/10:30pm 15.1 5.6 3.9 47 5.1 WNW 43 70 23 38 989.6 - 0.0
30/10:27pm 15.1 6.4 3.9 47 5.1 WNW 39 70 21 38 989.6 - 0.0
30/10:01pm 14.9 7.5 4.0 48 5.0 NW 32 50 17 27 990.1 - 0.0
30/10:00pm 15.0 7.6 4.1 48 5.1 NW 32 48 17 26 990.2 990.2 0.0
30/09:33pm 14.6 8.1 4.6 51 4.6 NW 28 46 15 25 990.4 - 0.0
30/09:30pm 14.4 7.5 4.7 52 4.5 NW 30 46 16 25 990.4 - 0.0
30/09:14pm 14.3 7.8 4.9 53 4.4 NW 28 46 15 25 990.5 - 0.0
30/09:00pm 13.8 8.9 4.9 55 4.2 NNW 20 30 11 16 990.7 990.7 0.0
30/08:30pm 13.3 8.6 5.2 58 3.8 NW 19 37 10 20 991.3 - 0.0
30/08:00pm 12.9 8.0 5.3 60 3.6 NNW 20 39 11 21 991.7 991.7 0.0
30/07:30pm 13.4 8.5 5.3 58 3.8 NW 20 39 11 21 992.3 - 0.0
30/07:00pm 13.3 7.8 5.7 60 3.6 WNW 24 39 13 21 992.8 992.8 0.0
30/06:33pm 13.5 7.2 5.9 60 3.6 WNW 28 46 15 25 992.8 - 0.0
30/06:30pm 13.6 7.4 6.0 60 3.6 WNW 28 41 15 22 992.8 - 0.0
30/06:00pm 13.1 7.9 7.3 68 2.8 WNW 24 37 13 20 993.1 993.1 0.0
30/05:30pm 13.4 7.7 6.7 64 3.2 NW 26 44 14 24 993.0 - 0.0
30/05:00pm 13.3 8.0 6.9 65 3.1 NW 24 41 13 22 992.9 992.9 0.0
30/04:30pm 13.8 7.3 6.7 62 3.4 WNW 30 46 16 25 993.0 - 0.0
30/04:00pm 13.6 8.7 6.7 63 3.4 WNW 22 37 12 20 992.8 992.8 0.0
30/03:30pm 13.4 8.8 6.7 64 3.2 WNW 20 35 11 19 992.7 - 0.0
30/03:00pm 13.2 7.1 6.8 65 3.1 WNW 28 50 15 27 993.2 993.2 0.0
30/02:30pm 13.4 6.8 6.0 61 3.5 WNW 30 50 16 27 993.4 - 0.0
30/02:00pm 13.4 5.8 5.8 60 3.6 WNW 35 59 19 32 993.8 993.8 0.0
30/01:30pm 13.6 3.9 5.7 59 3.7 WNW 46 69 25 37 994.0 - 0.0
30/01:00pm 14.9 6.9 5.7 54 4.4 WNW 37 57 20 31 994.0 994.0 0.0
30/12:30pm 14.5 5.8 5.8 56 4.1 WNW 41 67 22 36 993.7 - 0.0
30/12:00pm 13.9 3.7 5.3 56 4.1 NW 48 74 26 40 993.3 993.3 0.0
30/11:30am 13.8 4.4 5.4 57 3.9 NW 44 69 24 37 994.1 - 0.0
30/11:01am 13.9 5.5 5.5 57 4.0 WNW 39 59 21 32 994.8 - 0.0
30/11:00am 14.0 5.2 5.6 57 4.0 WNW 41 59 22 32 994.9 994.9 0.0
30/10:30am 13.2 5.4 4.9 57 3.8 WNW 35 57 19 31 995.3 - 0.0
30/10:00am 13.3 6.4 4.7 56 4.0 WNW 30 57 16 31 995.4 995.4 0.0
30/09:33am 12.6 5.1 4.6 58 3.7 WNW 33 54 18 29 995.5 - 0.0
30/09:30am 12.4 4.5 4.1 57 3.7 WNW 35 54 19 29 995.5 - 0.0
30/09:19am 12.4 5.7 3.6 55 3.9 NW 28 54 15 29 995.4 - 0.0
30/09:00am 11.3 4.9 3.3 58 3.5 NW 26 43 14 23 995.4 995.4 5.8
30/08:30am 11.1 4.6 2.4 55 3.7 NW 26 41 14 22 995.9 - 5.8
30/08:00am 10.0 4.6 1.1 54 3.7 NW 19 32 10 17 996.0 996.0 5.8
30/07:30am 9.7 4.2 0.9 54 3.6 NW 19 30 10 16 996.1 - 5.8
30/07:00am 9.3 3.9 1.5 58 3.3 NW 19 30 10 16 996.0 996.0 5.8
30/06:30am 8.7 3.5 2.7 66 2.5 NW 19 32 10 17 996.6 - 5.8
30/06:00am 9.0 3.3 3.0 66 2.6 NW 22 35 12 19 996.6 996.6 5.8
30/05:30am 9.0 3.0 3.2 67 2.5 NW 24 35 13 19 996.5 - 5.8
30/05:00am 9.6 1.3 2.2 60 3.1 WNW 35 54 19 29 996.1 996.1 5.8
30/04:30am 9.9 0.7 1.3 55 3.6 W 39 61 21 33 995.6 - 5.8
30/04:00am 9.0 1.8 3.0 66 2.6 WNW 30 52 16 28 995.3 995.3 5.6
30/03:44am 8.8 1.8 4.0 72 2.1 WNW 30 48 16 26 995.1 - 5.6
30/03:30am 8.7 2.5 4.1 73 2.0 W 26 37 14 20 994.8 - 5.6
30/03:00am 8.3 1.7 4.3 76 1.8 W 28 39 15 21 994.2 994.2 5.6
30/02:30am 8.6 1.3 4.4 75 1.8 WNW 32 41 17 22 993.4 - 5.6
30/02:00am 9.1 -0.4 3.9 70 2.3 W 43 52 23 28 992.2 992.2 5.6
30/01:30am 7.9 2.2 4.7 80 1.4 WNW 24 35 13 19 992.4 - 5.6
30/01:00am 8.6 -1.7 4.8 77 1.7 W 48 69 26 37 991.8 991.8 5.2
30/12:32am 8.1 -1.2 5.2 82 1.3 W 43 63 23 34 991.7 - 5.0
30/12:30am 8.3 -1.9 5.4 82 1.3 W 48 65 26 35 991.6 - 4.8
30/12:14am 8.6 -4.6 4.6 76 1.8 W 63 82 34 44 990.9 - 4.8
30/12:09am 8.8 -4.8 4.2 73 2.0 W 65 76 35 41 991.1 - 4.8
30/12:07am 8.8 1.4 5.0 77 1.7 W 33 74 18 40 991.5 - 4.6
30/12:00am 8.7 1.7 4.1 73 2.0 WNW 30 52 16 28 991.0 991.0 4.6
 
Date/Time
EST
Tmp

°C
App
Tmp
°C
Dew
Point
°C
Rel
Hum
%
Delta-T

°C
Wind Press
QNH
hPa
Press
MSL
hPa
Rain
since
9 am
mm
Dir
 
Spd
km/h
Gust
km/h
Spd
kts
Gust
kts
29/11:53pm 8.4 0.9 4.4 76 1.8 WNW 33 54 18 29 990.6 - 4.6
29/11:49pm 8.4 0.1 4.2 75 1.8 NW 37 54 20 29 990.4 - 4.6
29/11:30pm 8.9 -2.1 5.1 77 1.7 W 52 76 28 41 990.8 - 4.4
29/11:22pm 9.8 -0.3 4.0 67 2.6 WNW 46 76 25 41 990.1 - 4.0
29/11:00pm 10.6 2.4 2.7 58 3.4 WNW 35 57 19 31 989.0 989.0 3.8
29/10:30pm 11.6 -0.4 1.5 50 4.3 WNW 54 78 29 42 988.9 - 3.8
29/10:00pm 12.3 1.7 0.7 45 4.9 W 46 76 25 41 988.0 988.0 3.8
29/09:34pm 11.6 -1.3 1.8 51 4.2 W 59 80 32 43 987.7 - 3.8
29/09:30pm 11.2 2.3 2.8 56 3.6 WNW 39 57 21 31 987.7 - 3.8
29/09:00pm 10.0 2.1 4.6 69 2.4 WNW 35 57 19 31 987.8 987.8 3.8
29/08:48pm 9.5 1.7 4.7 72 2.1 W 35 56 19 30 988.2 - 3.8
29/08:41pm 9.7 1.3 5.7 76 1.8 W 39 46 21 25 987.8 - 3.8
29/08:31pm 10.8 -1.6 4.9 67 2.7 WNW 59 78 32 42 988.2 - 3.6
29/08:30pm 11.0 2.8 4.7 65 2.8 WNW 37 78 20 42 987.8 - 3.6
29/08:00pm 11.0 2.8 4.7 65 2.9 WNW 37 57 20 31 986.7 986.7 3.4
29/07:40pm 11.1 1.7 4.6 64 2.9 WNW 43 82 23 44 986.5 - 3.4
29/07:31pm 11.0 3.7 5.3 68 2.6 WNW 33 52 18 28 986.8 - 3.4
29/07:30pm 11.2 3.9 5.3 67 2.7 NW 33 52 18 28 986.5 - 3.4
29/07:00pm 11.5 0.4 4.5 62 3.2 WNW 52 78 28 42 986.5 986.5 3.4
29/06:47pm 11.7 3.7 5.6 66 2.8 WNW 37 69 20 37 986.9 - 3.4
29/06:30pm 10.4 4.5 7.3 81 1.5 WNW 28 46 15 25 986.2 - 3.4
29/06:22pm 8.9 3.1 7.8 93 0.5 W 28 48 15 26 985.9 - 3.4
29/06:19pm 9.0 2.2 7.8 92 0.6 W 33 48 18 26 986.2 - 3.4
29/06:15pm 8.6 -2.6 7.7 94 0.4 WSW 56 76 30 41 985.6 - 3.2
29/06:10pm 9.0 -4.2 6.4 84 1.2 WSW 65 76 35 41 986.3 - 2.6
29/06:08pm 10.9 3.6 8.8 87 1.0 SW 37 70 20 38 986.1 - 2.4
29/06:00pm 10.5 9.4 8.6 88 0.9 W 4 11 2 6 985.1 985.1 2.4
29/05:30pm 10.5 6.4 8.8 89 0.8 W 20 30 11 16 985.2 - 2.4
29/05:25pm 11.5 5.9 8.7 83 1.4 WNW 28 46 15 25 985.5 - 2.0
29/05:00pm 11.7 7.1 8.0 78 1.8 N 22 41 12 22 985.1 985.1 1.0
29/04:30pm 11.9 5.2 8.0 77 1.9 NW 33 59 18 32 984.9 - 0.8
29/04:10pm 13.7 7.4 5.6 58 3.8 NNW 28 52 15 28 985.5 - 0.2
29/04:00pm 13.4 8.6 5.8 60 3.6 NW 20 37 11 20 985.6 985.6 0.2
29/03:30pm 13.8 7.5 5.7 58 3.8 NW 28 48 15 26 986.3 - 0.2
29/03:14pm 13.7 6.9 5.3 57 3.9 NW 30 54 16 29 986.3 - 0.2
29/03:00pm 14.0 8.4 5.6 57 4.0 WNW 24 37 13 20 987.1 987.1 0.2
29/02:38pm 13.6 7.2 5.0 56 4.0 NW 28 48 15 26 987.6 - 0.2
29/02:30pm 13.4 6.2 5.1 57 3.9 NW 32 46 17 25 987.4 - 0.2
29/02:02pm 13.2 5.0 4.6 56 3.9 NW 37 57 20 31 987.3 - 0.2
29/02:00pm 13.2 4.6 4.6 56 4.0 NW 39 57 21 31 987.4 987.4 0.2
29/01:30pm 12.7 6.2 4.9 59 3.6 NW 28 56 15 30 988.2 - 0.2
29/01:04pm 11.1 1.9 6.3 72 2.2 NW 44 65 24 35 989.2 - 0.2
29/01:00pm 11.0 0.5 5.5 69 2.6 NW 50 65 27 35 989.1 989.1 0.2
29/12:53pm 11.0 4.6 6.9 76 1.9 NW 30 50 16 27 989.6 - 0.2
29/12:30pm 11.0 2.5 6.9 76 1.9 W 41 67 22 36 990.4 - 0.0
29/12:01pm 11.8 4.0 6.5 70 2.5 WNW 37 56 20 30 989.8 - 0.0
29/12:00pm 11.8 3.6 6.5 70 2.5 WNW 39 56 21 30 989.8 989.8 0.0
29/11:30am 11.9 2.7 6.2 68 2.7 WNW 44 67 24 36 990.2 - 0.0
29/11:01am 13.6 5.3 6.2 61 3.5 NW 39 59 21 32 989.9 - 0.0
29/11:00am 13.6 5.4 6.5 62 3.4 NW 39 56 21 30 989.9 989.9 0.0
29/10:35am 13.7 5.2 6.8 63 3.3 WNW 41 61 22 33 989.7 - 0.0
29/10:30am 13.7 5.6 7.0 64 3.3 WNW 39 56 21 30 989.6 - 0.0
29/10:06am 14.5 8.1 7.1 61 3.6 WNW 30 48 16 26 989.9 - 0.0
29/10:00am 14.7 7.7 7.0 60 3.8 NW 33 48 18 26 989.8 989.8 0.0
29/09:51am 14.4 8.0 7.0 61 3.6 WNW 30 48 16 26 989.9 - 0.0
29/09:30am 14.2 9.5 7.9 66 3.1 NW 22 41 12 22 990.0 - 0.0
29/09:00am 12.0 8.5 8.8 81 1.6 NNW 17 30 9 16 990.4 990.4 2.4
29/08:30am 12.0 7.9 8.8 81 1.6 N 20 32 11 17 990.7 - 1.4
29/08:00am 11.3 8.4 8.2 81 1.5 W 13 20 7 11 991.1 991.1 0.0
29/07:30am 13.1 7.9 7.1 67 2.9 WNW 24 46 13 25 991.6 - 0.0
29/07:09am 13.7 7.6 6.8 63 3.3 NW 28 50 15 27 992.0 - 0.0
29/07:00am 13.9 8.9 6.3 60 3.7 NNW 22 44 12 24 991.7 991.7 0.0
29/06:30am 13.3 10.3 5.9 61 3.5 NNW 11 26 6 14 991.5 - 0.0
29/06:00am 12.6 7.9 6.2 65 3.1 NNW 20 30 11 16 992.2 992.2 0.0
29/05:30am 12.7 8.0 6.1 64 3.1 N 20 33 11 18 993.1 - 0.0
29/05:00am 12.4 7.7 5.3 62 3.3 NNW 19 32 10 17 993.8 993.8 0.0
29/04:30am 11.8 8.7 5.7 66 2.8 N 11 19 6 10 994.1 - 0.0
29/04:00am 10.7 7.3 5.7 71 2.3 N 13 20 7 11 995.1 995.1 0.0
29/03:30am 11.5 7.2 5.2 65 2.9 N 17 26 9 14 995.6 - 0.0
29/03:00am 10.4 7.2 5.2 70 2.4 N 11 17 6 9 996.2 996.2 0.0
29/02:30am 11.4 7.8 5.1 65 2.9 N 13 22 7 12 996.8 - 0.0
29/02:00am 11.5 7.8 4.7 63 3.1 N 13 22 7 12 997.4 997.4 0.0
29/01:30am 11.1 8.1 4.1 62 3.1 N 9 17 5 9 997.5 - 0.0
29/01:00am 12.1 8.0 4.3 59 3.6 NNW 15 24 8 13 998.2 998.2 0.0
29/12:30am 12.4 7.5 4.1 57 3.7 NW 19 35 10 19 998.8 - 0.0
29/12:00am 12.5 7.5 4.5 58 3.7 NW 20 44 11 24 999.0 999.0 0.0
 
Date/Time
EST
Tmp

°C
App
Tmp
°C
Dew
Point
°C
Rel
Hum
%
Delta-T

°C
Wind Press
QNH
hPa
Press
MSL
hPa
Rain
since
9 am
mm
Dir
 
Spd
km/h
Gust
km/h
Spd
kts
Gust
kts
28/11:30pm 12.1 8.0 4.3 59 3.5 NNW 15 26 8 14 999.4 - 0.0
28/11:00pm 12.5 8.0 4.2 57 3.8 NW 17 30 9 16 999.6 999.6 0.0
28/10:30pm 12.4 7.9 4.1 57 3.7 NW 17 32 9 17 1000.3 - 0.0
28/10:00pm 12.7 7.7 4.4 57 3.8 NW 20 35 11 19 1000.4 1000.4 0.0
28/09:30pm 12.5 8.1 4.5 58 3.6 NW 17 26 9 14 1000.4 - 0.0
28/09:00pm 12.4 7.8 3.9 56 3.8 NNW 17 24 9 13 1000.7 1000.7 0.0
28/08:30pm 11.6 8.8 2.9 55 3.8 NW 7 13 4 7 1001.5 - 0.0
28/08:00pm 12.8 9.3 3.5 53 4.2 NW 11 24 6 13 1001.5 1001.5 0.0
28/07:30pm 13.4 8.4 3.5 51 4.4 WNW 19 28 10 15 1001.9 - 0.0
28/07:00pm 14.1 8.9 2.4 45 5.2 NW 19 32 10 17 1001.9 1001.9 0.0
28/06:30pm 14.2 9.4 2.8 46 5.1 NW 17 28 9 15 1001.5 - 0.0
28/06:00pm 12.2 9.4 3.4 55 3.9 NW 7 15 4 8 1001.2 1001.2 0.0
28/05:30pm 13.7 10.7 2.3 46 5.0 NW 7 13 4 7 1001.3 - 0.0
28/05:00pm 13.4 10.0 2.0 46 5.0 WNW 9 17 5 9 1001.5 1001.5 0.0
28/04:30pm 14.8 9.5 2.0 42 5.6 WNW 19 30 10 16 1001.6 - 0.0
28/04:00pm 15.7 10.7 1.4 38 6.3 WNW 17 30 9 16 1001.6 1001.6 0.0
28/03:30pm 16.2 10.8 1.5 37 6.5 WNW 19 30 10 16 1001.8 - 0.0
28/03:00pm 16.3 11.1 2.7 40 6.2 WNW 19 28 10 15 1002.2 1002.2 0.0
28/02:30pm 16.4 12.2 3.8 43 5.8 WNW 15 26 8 14 1002.1 - 0.0
28/02:00pm 16.1 10.8 3.2 42 5.9 WNW 20 30 11 16 1002.6 1002.6 0.0
28/01:30pm 15.9 8.7 3.0 42 5.9 WNW 30 50 16 27 1002.9 - 0.0
28/01:00pm 15.8 8.2 2.9 42 5.9 WNW 32 46 17 25 1003.5 1003.5 0.0
28/12:36pm 15.9 8.1 2.7 41 6.0 WNW 33 54 18 29 1003.7 - 0.0
28/12:30pm 15.7 8.5 3.2 43 5.7 WNW 30 48 16 26 1003.8 - 0.0
28/12:15pm 15.8 8.5 5.4 50 5.0 WNW 33 54 18 29 1003.9 - 0.0
28/12:00pm 15.8 8.0 5.1 49 5.1 WNW 35 50 19 27 1004.0 1004.0 0.0
28/11:40am 16.1 9.7 5.4 49 5.1 WNW 28 46 15 25 1004.4 - 0.0
28/11:30am 16.1 10.6 5.7 50 5.0 WNW 24 35 13 19 1004.6 - 0.0
28/11:00am 15.3 10.6 5.2 51 4.8 W 19 28 10 15 1005.3 1005.3 0.0
28/10:30am 15.3 8.9 5.2 51 4.8 WNW 28 41 15 22 1005.4 - 0.0
28/10:00am 15.5 12.2 6.2 54 4.5 NW 13 22 7 12 1005.5 1005.5 0.0
28/09:30am 14.7 10.1 6.3 57 4.0 WNW 20 28 11 15 1005.6 - 0.0
28/09:00am 14.4 12.2 6.3 58 3.9 N 7 19 4 10 1005.9 1005.9 0.0
28/08:30am 13.9 12.4 7.0 63 3.4 NNW 4 9 2 5 1005.8 - 0.0
28/08:00am 13.6 9.9 6.5 62 3.4 NW 15 24 8 13 1005.5 1005.5 0.0
28/07:30am 13.1 8.7 6.7 65 3.1 NNW 19 30 10 16 1005.7 - 0.0
28/07:00am 11.6 9.6 7.1 74 2.2 N 7 15 4 8 1006.2 1006.2 0.0
28/06:30am 12.7 10.1 7.8 72 2.4 N 11 17 6 9 1006.2 - 0.0
28/06:00am 12.1 9.2 8.2 77 1.9 NNE 13 19 7 10 1005.9 1005.9 0.0
28/05:30am 11.8 8.6 8.3 79 1.7 N 15 19 8 10 1005.9 - 0.0
28/05:00am 11.3 7.9 7.6 78 1.8 NNE 15 20 8 11 1006.1 1006.1 0.0
28/04:30am 11.7 8.9 7.0 73 2.2 N 11 20 6 11 1006.5 - 0.0
28/04:00am 10.3 7.0 6.5 77 1.8 NNE 13 17 7 9 1006.5 1006.5 0.0
28/03:30am 10.3 7.1 7.0 80 1.6 NNE 13 17 7 9 1006.8 - 0.0

Latest Capital City Observations: Canberra | Sydney | Melbourne | Brisbane | Adelaide | Perth | Hobart | Darwin

Other Formats:

Comma delimited format used in spreadsheet applications
http://www.bom.gov.au/fwo/IDT60901/IDT60901.94951.axf

JavaScript Object Notation format (JSON) in row-major order
http://www.bom.gov.au/fwo/IDT60901/IDT60901.94951.json